Time;durP1;ratioP1;P1;durP2;ratioP2;P2;SDS_P1;SDS_P2;PMS_P1;PMS_P2;Temp;Humidity;BMP_temperature;BMP_pressure;BME280_temperature;BME280_humidity;BME280_pressure;Samples;Min_cycle;Max_cycle;Signal;HPM_P1;HPM_P2
2022/11/02 00:02:17;;;;;;;73.38;9.00;;;6.90;99.90;;;;;;5028553;28;20805;-59
2022/11/02 00:04:43;;;;;;;30.42;7.90;;;6.90;99.90;;;;;;5028304;28;20544;-60
2022/11/02 00:07:08;;;;;;;6.95;6.18;;;6.90;99.90;;;;;;5027143;28;20033;-59
2022/11/02 00:09:34;;;;;;;7.47;6.85;;;7.00;99.90;;;;;;5027696;28;20017;-60
2022/11/02 00:11:59;;;;;;;7.65;6.95;;;6.90;99.90;;;;;;5025293;28;20026;-61
2022/11/02 00:14:25;;;;;;;8.27;6.25;;;6.90;99.90;;;;;;5027275;28;20424;-61
2022/11/02 00:16:51;;;;;;;49.88;7.78;;;7.00;99.90;;;;;;5026890;28;20030;-60
2022/11/02 00:19:16;;;;;;;20.25;7.18;;;7.00;99.90;;;;;;5028246;28;20037;-60
2022/11/02 00:21:42;;;;;;;25.95;6.75;;;7.00;99.90;;;;;;5026374;28;20030;-60
2022/11/02 00:24:10;;;;;;;11.65;6.22;;;7.00;99.90;;;;;;5027723;28;20022;-61
2022/11/02 00:26:36;;;;;;;15.13;6.18;;;6.90;99.90;;;;;;5027875;28;20029;-60
2022/11/02 00:29:06;;;;;;;17.48;6.18;;;6.90;99.90;;;;;;5026620;28;20084;-60
2022/11/02 00:31:31;;;;;;;7.10;6.43;;;7.00;99.90;;;;;;5027465;28;20026;-62
2022/11/02 00:33:57;;;;;;;7.75;6.63;;;7.00;99.90;;;;;;5026778;28;20032;-60
2022/11/02 00:36:24;;;;;;;10.02;7.05;;;7.10;99.90;;;;;;5027418;28;20026;-60
2022/11/02 00:38:50;;;;;;;6.72;6.10;;;7.10;99.90;;;;;;5027482;28;20119;-58
2022/11/02 00:41:17;;;;;;;6.13;5.53;;;7.10;99.90;;;;;;5027892;28;20075;-60
2022/11/02 00:43:43;;;;;;;9.73;6.15;;;7.10;99.90;;;;;;5026212;28;20064;-60
2022/11/02 00:46:09;;;;;;;7.45;6.25;;;7.00;99.90;;;;;;5030928;28;20069;-60
2022/11/02 00:48:35;;;;;;;6.80;5.50;;;7.00;99.90;;;;;;5027498;28;20456;-60
2022/11/02 00:51:00;;;;;;;6.82;6.07;;;6.90;99.90;;;;;;5027045;28;20038;-60
2022/11/02 00:53:27;;;;;;;7.65;5.90;;;6.90;99.90;;;;;;5027712;28;20076;-61
2022/11/02 00:55:52;;;;;;;8.02;6.65;;;6.80;99.90;;;;;;5027089;28;20036;-59
2022/11/02 00:58:18;;;;;;;7.53;6.50;;;6.80;99.90;;;;;;5027646;28;20034;-59
2022/11/02 01:00:44;;;;;;;7.57;6.03;;;6.80;99.90;;;;;;5026819;28;20032;-59
2022/11/02 01:03:10;;;;;;;6.70;5.30;;;6.70;99.90;;;;;;5025474;28;20065;-59
2022/11/02 01:05:36;;;;;;;9.98;6.78;;;6.70;99.90;;;;;;5027478;28;20033;-60
2022/11/02 01:08:02;;;;;;;7.93;6.85;;;6.60;99.90;;;;;;5021380;28;20551;-59
2022/11/02 01:10:28;;;;;;;7.32;6.63;;;6.50;99.90;;;;;;5027559;28;20046;-60
2022/11/02 01:12:53;;;;;;;9.90;7.93;;;6.60;99.90;;;;;;5026179;28;20045;-60
2022/11/02 01:15:19;;;;;;;9.50;7.07;;;6.60;99.90;;;;;;5027023;28;20061;-60
2022/11/02 01:17:45;;;;;;;8.38;7.57;;;6.60;99.90;;;;;;5024477;28;20025;-60
2022/11/02 01:20:11;;;;;;;9.50;8.60;;;6.60;99.90;;;;;;5027754;28;20026;-60
2022/11/02 01:22:36;;;;;;;9.98;7.57;;;6.60;99.90;;;;;;5026347;28;20041;-61
2022/11/02 01:25:03;;;;;;;15.18;7.72;;;6.60;99.90;;;;;;5026836;28;20501;-61
2022/11/02 01:27:28;;;;;;;11.52;9.32;;;6.50;99.90;;;;;;5025237;28;20377;-60
2022/11/02 01:29:54;;;;;;;9.13;8.23;;;6.50;99.90;;;;;;5026217;28;20024;-62
2022/11/02 01:32:19;;;;;;;11.70;8.57;;;6.60;99.90;;;;;;5028549;28;20034;-60
2022/11/02 01:34:45;;;;;;;10.25;8.05;;;6.50;99.90;;;;;;5029561;28;20032;-60
2022/11/02 01:37:11;;;;;;;9.63;8.73;;;6.50;99.90;;;;;;5028879;28;20423;-61
2022/11/02 01:39:36;;;;;;;13.48;9.05;;;6.50;99.90;;;;;;5030143;28;20432;-61
2022/11/02 01:42:02;;;;;;;9.40;8.38;;;6.50;99.90;;;;;;5030846;28;20051;-60
2022/11/02 01:44:31;;;;;;;10.30;9.02;;;6.50;99.90;;;;;;5028716;28;20018;-60
2022/11/02 01:47:10;;;;;;;10.07;8.77;;;6.50;99.90;;;;;;5030818;28;20084;-61
2022/11/02 01:49:40;;;;;;;9.30;8.40;;;6.40;99.90;;;;;;5027454;28;20428;-61
2022/11/02 01:52:14;;;;;;;15.85;8.77;;;6.40;99.90;;;;;;5028010;28;20463;-57
2022/11/02 01:55:00;;;;;;;13.82;8.38;;;6.40;99.90;;;;;;5027074;28;20029;-61
2022/11/02 01:57:28;;;;;;;8.77;7.95;;;6.40;99.90;;;;;;5029794;28;20029;-61
2022/11/02 02:00:17;;;;;;;9.15;7.70;;;6.40;99.90;;;;;;5029974;28;20075;-61
2022/11/02 02:03:00;;;;;;;9.88;7.82;;;6.40;99.90;;;;;;5029206;28;20037;-59
2022/11/02 02:05:26;;;;;;;8.15;7.45;;;6.30;99.90;;;;;;5030630;28;20065;-61
2022/11/02 02:07:53;;;;;;;9.82;8.80;;;6.30;99.90;;;;;;5029200;28;20022;-60
2022/11/02 02:10:19;;;;;;;13.95;9.23;;;6.30;99.90;;;;;;5028081;28;20120;-60
2022/11/02 02:12:45;;;;;;;16.48;9.20;;;6.30;99.90;;;;;;5029044;28;20533;-59
2022/11/02 02:15:11;;;;;;;10.48;9.35;;;6.30;99.90;;;;;;5030415;28;20086;-60
2022/11/02 02:17:54;;;;;;;15.05;9.82;;;6.30;99.90;;;;;;5027921;28;20086;-60
2022/11/02 02:20:59;;;;;;;11.10;9.30;;;6.30;99.90;;;;;;5029045;28;20038;-60
2022/11/02 02:23:44;;;;;;;15.25;9.60;;;6.30;99.90;;;;;;5027338;28;20500;-61
2022/11/02 02:26:50;;;;;;;12.85;9.82;;;6.30;99.90;;;;;;5028474;28;20029;-61
2022/11/02 02:29:49;;;;;;;13.57;9.82;;;6.30;99.90;;;;;;5024258;28;20041;-60
2022/11/02 02:32:59;;;;;;;10.45;9.23;;;6.30;99.90;;;;;;5015771;28;20060;-60
2022/11/02 02:35:32;;;;;;;10.65;9.48;;;6.30;99.90;;;;;;5013487;28;20041;-61
2022/11/02 02:37:57;;;;;;;12.10;8.80;;;6.20;99.90;;;;;;5025968;28;20051;-61
2022/11/02 02:40:46;;;;;;;18.23;8.95;;;6.20;99.90;;;;;;5028764;28;20478;-61
2022/11/02 02:43:19;;;;;;;14.80;8.95;;;6.20;99.90;;;;;;5028949;28;20047;-61
2022/11/02 02:45:54;;;;;;;9.88;8.48;;;6.20;99.90;;;;;;5027751;28;20030;-61
2022/11/02 02:48:22;;;;;;;16.90;7.47;;;6.20;99.90;;;;;;5027310;28;20037;-60
2022/11/02 02:50:49;;;;;;;10.98;7.90;;;6.20;99.90;;;;;;5019462;28;20583;-59
2022/11/02 02:53:19;;;;;;;8.15;7.40;;;6.20;99.90;;;;;;5049335;28;20021;-60
2022/11/02 02:55:49;;;;;;;9.98;8.30;;;6.10;99.90;;;;;;5033111;28;20030;-58
2022/11/02 02:58:20;;;;;;;14.05;7.57;;;6.20;99.90;;;;;;5027388;28;20493;-59
2022/11/02 03:00:46;;;;;;;;;;;6.20;99.90;;;;;;5029276;28;20049;-59
2022/11/02 03:03:24;;;;;;;8.77;7.28;;;6.20;99.90;;;;;;5027460;28;20373;-60
2022/11/02 03:06:14;;;;;;;9.23;7.63;;;6.20;99.90;;;;;;5028209;28;20030;-61
2022/11/02 03:08:46;;;;;;;9.77;7.90;;;6.20;99.90;;;;;;5028441;28;20024;-61
2022/11/02 03:11:14;;;;;;;15.02;8.55;;;6.10;99.90;;;;;;5026455;28;20033;-60
2022/11/02 03:14:06;;;;;;;8.05;7.10;;;6.20;99.90;;;;;;5025556;28;20052;-60
2022/11/02 03:16:53;;;;;;;8.35;6.78;;;6.20;99.90;;;;;;5028851;28;20371;-60
2022/11/02 03:19:43;;;;;;;7.63;6.93;;;6.10;99.90;;;;;;5026790;28;20134;-60
2022/11/02 03:22:20;;;;;;;11.10;7.38;;;6.10;99.90;;;;;;5028650;28;20030;-60
2022/11/02 03:25:18;;;;;;;7.63;6.88;;;6.20;99.90;;;;;;5024670;28;20057;-60
2022/11/02 03:27:59;;;;;;;9.43;8.30;;;6.20;99.90;;;;;;5028668;28;20616;-59
2022/11/02 03:30:32;;;;;;;10.50;7.97;;;6.20;99.90;;;;;;5028820;28;20026;-60
2022/11/02 03:33:11;;;;;;;9.95;8.25;;;6.20;99.90;;;;;;5027735;28;20033;-60
2022/11/02 03:35:58;;;;;;;8.30;7.53;;;6.20;99.90;;;;;;5027940;28;20063;-60
2022/11/02 03:38:34;;;;;;;10.32;7.93;;;6.20;99.90;;;;;;5028635;28;20033;-60
2022/11/02 03:41:02;;;;;;;9.38;7.68;;;6.20;99.90;;;;;;5027079;28;20029;-60
2022/11/02 03:43:29;;;;;;;13.00;7.13;;;6.10;99.90;;;;;;5028705;28;20042;-59
2022/11/02 03:45:59;;;;;;;10.95;6.82;;;6.10;99.90;;;;;;5019197;28;20040;-60
2022/11/02 03:48:30;;;;;;;7.97;6.55;;;6.10;99.90;;;;;;5029223;28;20063;-60
2022/11/02 03:50:59;;;;;;;10.27;7.65;;;6.10;99.90;;;;;;5027683;28;20021;-60
2022/11/02 03:53:33;;;;;;;8.27;6.78;;;6.10;99.90;;;;;;5027476;28;20055;-61
2022/11/02 03:56:06;;;;;;;15.43;8.02;;;6.10;99.90;;;;;;5027324;28;20033;-59
2022/11/02 03:58:32;;;;;;;15.52;7.03;;;6.20;99.90;;;;;;5028314;28;20421;-60
2022/11/02 04:01:06;;;;;;;10.52;5.90;;;6.20;99.90;;;;;;5027031;28;20117;-60
2022/11/02 04:03:33;;;;;;;7.70;6.30;;;6.30;99.90;;;;;;5025459;28;20037;-59
2022/11/02 04:05:59;;;;;;;5.88;5.20;;;6.40;99.90;;;;;;5028252;28;20108;-60
2022/11/02 04:08:44;;;;;;;6.82;6.18;;;6.40;99.90;;;;;;5026218;28;20112;-60
2022/11/02 04:16:40;;;;;;;6.15;5.22;;;6.40;99.90;;;;;;5026525;28;20523;-60
2022/11/02 04:27:18;;;;;;;8.60;5.10;;;6.30;99.90;;;;;;5027010;28;20056;-61
2022/11/02 04:29:44;;;;;;;7.35;4.85;;;6.30;99.90;;;;;;5027465;28;20482;-61
2022/11/02 04:32:10;;;;;;;6.00;5.25;;;6.30;99.90;;;;;;5027691;28;20049;-60
2022/11/02 04:34:35;;;;;;;5.85;5.10;;;6.40;99.90;;;;;;5027413;28;20473;-59
2022/11/02 04:38:39;;;;;;;8.32;5.40;;;6.30;99.90;;;;;;5026932;28;20033;-58
2022/11/02 04:39:47;;;;;;;7.68;5.07;;;6.30;99.90;;;;;;5027043;28;20806;-61
2022/11/02 04:42:12;;;;;;;7.75;5.07;;;6.30;99.90;;;;;;5026359;28;20033;-60
2022/11/02 04:44:38;;;;;;;5.05;4.47;;;6.30;99.90;;;;;;5027488;28;20032;-59
2022/11/02 04:47:03;;;;;;;8.07;5.60;;;6.30;99.90;;;;;;5027555;28;20093;-60
2022/11/02 04:49:29;;;;;;;11.25;4.53;;;6.20;99.90;;;;;;5028275;28;20021;-60
2022/11/02 04:51:55;;;;;;;15.68;4.93;;;6.20;99.90;;;;;;5026482;28;20034;-59
2022/11/02 04:54:20;;;;;;;6.45;4.22;;;6.20;99.90;;;;;;5025640;28;20044;-59
2022/11/02 04:56:46;;;;;;;9.10;5.25;;;6.20;99.90;;;;;;5026865;28;20040;-60
2022/11/02 04:59:12;;;;;;;5.60;4.68;;;6.10;99.90;;;;;;5027731;28;20615;-59
2022/11/02 05:01:37;;;;;;;6.55;4.65;;;6.10;99.90;;;;;;5027409;28;20040;-58
2022/11/02 05:04:04;;;;;;;7.72;4.60;;;6.10;99.90;;;;;;5026443;28;20082;-58
2022/11/02 05:06:29;;;;;;;6.93;4.43;;;6.10;99.90;;;;;;5025967;28;20018;-60
2022/11/02 05:08:55;;;;;;;8.48;4.88;;;6.10;99.90;;;;;;5031463;28;20108;-59
2022/11/02 05:11:21;;;;;;;8.05;4.80;;;6.10;99.90;;;;;;5030449;28;20047;-60
2022/11/02 05:13:46;;;;;;;10.40;4.32;;;6.10;99.90;;;;;;5031235;28;20029;-59
2022/11/02 05:16:15;;;;;;;8.80;4.20;;;6.10;99.90;;;;;;5030088;28;20680;-58
2022/11/02 05:18:41;;;;;;;7.82;4.28;;;6.10;99.90;;;;;;5031556;28;20051;-60
2022/11/02 05:21:08;;;;;;;11.75;4.75;;;6.10;99.90;;;;;;5030697;28;20153;-59
2022/11/02 05:23:34;;;;;;;12.60;6.88;;;6.10;99.90;;;;;;5032100;28;20064;-61
2022/11/02 05:26:05;;;;;;;9.57;5.90;;;6.10;99.90;;;;;;5028607;28;20570;-60
2022/11/02 05:28:31;;;;;;;9.77;6.13;;;6.20;99.90;;;;;;5030692;28;20143;-59
2022/11/02 05:30:59;;;;;;;8.90;6.13;;;6.10;99.90;;;;;;5030818;28;20226;-60
2022/11/02 05:33:26;;;;;;;9.73;6.10;;;6.10;99.90;;;;;;5027717;28;20026;-59
2022/11/02 05:35:53;;;;;;;16.13;6.07;;;6.20;99.90;;;;;;5029798;28;20045;-59
2022/11/02 05:38:19;;;;;;;6.82;4.75;;;6.20;99.90;;;;;;5030816;28;20172;-59
2022/11/02 05:40:57;;;;;;;8.50;5.03;;;6.20;99.90;;;;;;5029454;28;20116;-59
2022/11/02 05:43:24;;;;;;;11.32;4.80;;;6.10;99.90;;;;;;5028503;28;20024;-59
2022/11/02 05:45:58;;;;;;;10.00;4.95;;;6.10;99.90;;;;;;5029499;28;20116;-59
2022/11/02 05:48:25;;;;;;;9.93;4.75;;;6.10;99.90;;;;;;5042559;28;20888;-59
2022/11/02 05:50:59;;;;;;;6.55;5.07;;;6.10;99.90;;;;;;5029044;28;20029;-59
2022/11/02 05:53:25;;;;;;;10.60;4.68;;;6.10;99.90;;;;;;5029219;28;20022;-61
2022/11/02 05:55:55;;;;;;;7.30;4.10;;;6.10;99.90;;;;;;5030235;28;20036;-59
2022/11/02 05:58:21;;;;;;;5.20;4.68;;;6.10;99.90;;;;;;5029439;28;20056;-61
2022/11/02 06:00:47;;;;;;;9.35;5.20;;;6.10;99.90;;;;;;5030156;28;20022;-59
2022/11/02 06:03:12;;;;;;;8.77;5.43;;;6.10;99.90;;;;;;5029345;28;20037;-61
2022/11/02 06:05:38;;;;;;;7.38;4.78;;;6.10;99.90;;;;;;5029525;28;20100;-60
2022/11/02 06:08:04;;;;;;;8.52;7.70;;;6.10;99.90;;;;;;5027862;28;20532;-60
2022/11/02 06:10:30;;;;;;;15.23;4.38;;;6.10;99.90;;;;;;5030105;28;20033;-60
2022/11/02 06:13:01;;;;;;;13.95;6.35;;;6.10;99.90;;;;;;5028044;28;20021;-60
2022/11/02 06:15:30;;;;;;;17.90;5.88;;;6.10;99.90;;;;;;5029382;28;20528;-60
2022/11/02 06:17:56;;;;;;;7.20;5.30;;;6.10;99.90;;;;;;5029036;28;20029;-60
2022/11/02 06:20:22;;;;;;;10.77;5.20;;;6.20;99.90;;;;;;5028901;28;20022;-60
2022/11/02 06:22:48;;;;;;;6.80;5.07;;;6.20;99.90;;;;;;5029698;28;20042;-59
2022/11/02 06:25:15;;;;;;;10.82;6.47;;;6.20;99.90;;;;;;5029979;28;20041;-62
2022/11/02 06:27:40;;;;;;;7.82;5.65;;;6.20;99.90;;;;;;5029962;28;20033;-59
2022/11/02 06:30:07;;;;;;;7.57;4.70;;;6.20;99.90;;;;;;5030099;28;20434;-59
2022/11/02 06:32:33;;;;;;;8.40;4.32;;;6.20;99.90;;;;;;5028280;28;20088;-60
2022/11/02 06:34:59;;;;;;;8.70;4.85;;;6.20;99.90;;;;;;5028301;28;20033;-59
2022/11/02 06:37:25;;;;;;;9.27;5.25;;;6.20;99.90;;;;;;5029320;28;20079;-61
2022/11/02 06:39:50;;;;;;;6.03;4.78;;;6.20;99.90;;;;;;5027948;28;20029;-61
2022/11/02 06:42:16;;;;;;;7.82;5.35;;;6.30;99.90;;;;;;5029046;28;20030;-59
2022/11/02 06:44:41;;;;;;;11.07;4.70;;;6.40;99.90;;;;;;5029796;28;20037;-60
2022/11/02 06:47:07;;;;;;;5.68;4.80;;;6.50;99.90;;;;;;5028133;28;20136;-61
2022/11/02 06:49:33;;;;;;;5.53;4.85;;;6.60;99.90;;;;;;5029226;28;20133;-60
2022/11/02 06:51:58;;;;;;;7.95;5.47;;;6.70;99.90;;;;;;5028765;28;20068;-59
2022/11/02 06:54:24;;;;;;;9.07;4.97;;;6.80;99.90;;;;;;5029261;28;20030;-60
2022/11/02 06:56:49;;;;;;;5.45;4.57;;;6.90;99.90;;;;;;5027277;28;20496;-61
2022/11/02 06:59:15;;;;;;;14.48;5.10;;;6.90;99.90;;;;;;5028300;28;20040;-61
2022/11/02 07:01:41;;;;;;;10.93;4.82;;;6.90;99.90;;;;;;5028785;28;20533;-60
2022/11/02 07:04:06;;;;;;;10.75;4.43;;;6.90;99.90;;;;;;5028395;28;20131;-59
2022/11/02 07:06:32;;;;;;;8.13;3.97;;;6.80;99.90;;;;;;5028076;28;20489;-59
2022/11/02 07:08:57;;;;;;;9.70;5.97;;;6.90;99.90;;;;;;5028280;28;20029;-60
2022/11/02 07:11:23;;;;;;;11.18;5.45;;;7.00;99.90;;;;;;5026534;28;20480;-59
2022/11/02 07:13:49;;;;;;;13.88;6.07;;;7.00;99.90;;;;;;5028150;28;20034;-60
2022/11/02 07:16:14;;;;;;;8.05;5.60;;;7.10;99.90;;;;;;5028295;28;20022;-60
2022/11/02 07:18:40;;;;;;;9.50;6.18;;;7.30;99.90;;;;;;5027612;28;21733;-60
2022/11/02 07:21:09;;;;;;;9.60;4.75;;;7.50;99.90;;;;;;5027432;28;20058;-59
2022/11/02 07:23:34;;;;;;;9.35;5.28;;;7.80;99.90;;;;;;5029764;28;20018;-60
2022/11/02 07:26:00;;;;;;;11.20;3.88;;;8.00;99.90;;;;;;5027901;28;20026;-60
2022/11/02 07:28:26;;;;;;;6.47;2.97;;;8.20;99.90;;;;;;5027354;28;20033;-59
2022/11/02 07:30:55;;;;;;;5.45;2.85;;;8.30;99.90;;;;;;5027283;28;20707;-60
2022/11/02 07:33:20;;;;;;;6.65;3.13;;;8.40;99.90;;;;;;5028434;28;20657;-60
2022/11/02 07:35:46;;;;;;;10.57;3.50;;;8.50;99.90;;;;;;5027162;28;20033;-61
2022/11/02 07:38:12;;;;;;;6.50;3.30;;;8.70;99.90;;;;;;5028603;28;20457;-58
2022/11/02 07:40:38;;;;;;;9.98;3.33;;;8.90;99.90;;;;;;5028526;28;20025;-58
2022/11/02 07:43:04;;;;;;;6.38;3.10;;;9.10;99.90;;;;;;5028091;28;21045;-58
2022/11/02 07:45:30;;;;;;;3.92;2.33;;;9.20;99.90;;;;;;5025316;28;20060;-57
2022/11/02 07:47:56;;;;;;;6.68;2.72;;;9.40;99.90;;;;;;5023694;28;20049;-57
2022/11/02 07:50:24;;;;;;;7.15;2.75;;;9.50;99.90;;;;;;5028198;28;20513;-57
2022/11/02 07:52:51;;;;;;;5.40;3.25;;;9.60;99.90;;;;;;5025993;28;20068;-58
2022/11/02 07:55:20;;;;;;;10.18;2.90;;;9.70;99.90;;;;;;5027077;28;20035;-58
2022/11/02 07:57:59;;;;;;;5.80;3.08;;;9.80;99.90;;;;;;5026588;28;20022;-57
2022/11/02 08:00:27;;;;;;;8.18;3.75;;;9.90;99.90;;;;;;5026084;28;20033;-57
2022/11/02 08:02:57;;;;;;;11.85;3.90;;;10.00;99.90;;;;;;5027584;28;20029;-59
2022/11/02 08:05:24;;;;;;;8.77;3.70;;;10.10;99.90;;;;;;5028176;28;20105;-59
2022/11/02 08:08:00;;;;;;;7.05;2.88;;;10.10;99.90;;;;;;5027306;28;20034;-60
2022/11/02 08:10:27;;;;;;;13.63;3.25;;;10.20;99.90;;;;;;5027397;28;20120;-59
2022/11/02 08:12:54;;;;;;;17.17;2.90;;;10.20;99.90;;;;;;5025505;28;20101;-61
2022/11/02 08:15:19;;;;;;;17.13;3.10;;;10.30;99.90;;;;;;5027378;28;20103;-58
2022/11/02 08:17:45;;;;;;;7.13;2.38;;;10.30;99.90;;;;;;5028409;28;20453;-58
2022/11/02 08:20:10;;;;;;;9.38;2.38;;;10.40;99.90;;;;;;5027813;28;20365;-59
2022/11/02 08:22:37;;;;;;;6.03;3.38;;;10.40;99.90;;;;;;5026389;28;20796;-59
2022/11/02 08:25:04;;;;;;;6.00;1.90;;;10.40;99.90;;;;;;5028214;28;20499;-59
2022/11/02 08:27:30;;;;;;;6.20;3.00;;;10.50;99.90;;;;;;5027544;28;20559;-59
2022/11/02 08:29:56;;;;;;;6.88;2.55;;;10.50;99.90;;;;;;5026074;28;20025;-58
2022/11/02 08:32:21;;;;;;;8.10;2.20;;;10.50;99.90;;;;;;5027017;28;20102;-59
2022/11/02 08:34:47;;;;;;;7.80;2.20;;;10.50;99.90;;;;;;5026239;28;20017;-59
2022/11/02 08:37:12;;;;;;;10.90;2.40;;;10.60;99.90;;;;;;5024090;28;20672;-58
2022/11/02 08:39:38;;;;;;;13.15;1.80;;;10.70;99.90;;;;;;5021750;28;20024;-59
2022/11/02 08:42:04;;;;;;;6.20;1.73;;;10.80;99.90;;;;;;5024486;28;20038;-58
2022/11/02 08:44:29;;;;;;;7.05;1.50;;;11.10;99.90;;;;;;5029049;28;20014;-58
2022/11/02 08:46:55;;;;;;;6.97;1.60;;;11.40;99.90;;;;;;5030248;28;20058;-58
2022/11/02 08:49:21;;;;;;;5.18;2.03;;;11.50;99.90;;;;;;5030965;28;20547;-58
2022/11/02 08:51:47;;;;;;;7.43;1.70;;;11.60;99.90;;;;;;5031404;28;20033;-59
2022/11/02 08:54:13;;;;;;;6.00;2.63;;;11.70;99.90;;;;;;5031228;28;20424;-58
2022/11/02 08:56:39;;;;;;;5.88;1.58;;;11.80;99.90;;;;;;5031893;28;20037;-57
2022/11/02 08:59:04;;;;;;;7.40;1.60;;;11.90;99.90;;;;;;5031368;28;20057;-59
2022/11/02 09:01:30;;;;;;;7.85;2.28;;;12.00;99.90;;;;;;5030951;28;20124;-59
2022/11/02 09:03:56;;;;;;;4.93;1.20;;;12.10;99.90;;;;;;5030403;28;20455;-58
2022/11/02 09:06:21;;;;;;;11.40;2.30;;;12.20;99.90;;;;;;5030586;28;20441;-59
2022/11/02 09:08:47;;;;;;;12.85;2.35;;;12.30;99.90;;;;;;5017619;28;20508;-59
2022/11/02 09:11:13;;;;;;;8.63;3.50;;;12.30;99.90;;;;;;5017841;28;20065;-57
2022/11/02 09:13:38;;;;;;;7.57;1.42;;;12.30;99.90;;;;;;5025938;28;20038;-59
2022/11/02 09:16:04;;;;;;;5.22;1.60;;;12.30;99.90;;;;;;5026159;28;20084;-57
2022/11/02 09:18:30;;;;;;;5.93;1.40;;;12.40;99.90;;;;;;5025461;28;20462;-57
2022/11/02 09:20:59;;;;;;;5.70;1.80;;;12.50;99.90;;;;;;5027648;28;20405;-59
2022/11/02 09:23:25;;;;;;;5.20;1.98;;;12.70;99.90;;;;;;5024244;28;20033;-58
2022/11/02 09:25:51;;;;;;;7.90;1.88;;;12.90;99.90;;;;;;5025959;28;20378;-58
2022/11/02 09:28:16;;;;;;;7.03;1.60;;;13.00;99.90;;;;;;5027311;28;20124;-57
2022/11/02 09:30:42;;;;;;;3.92;1.30;;;13.00;99.90;;;;;;5025421;28;20049;-60
2022/11/02 09:33:08;;;;;;;6.47;1.73;;;13.00;99.90;;;;;;5026987;28;20103;-58
2022/11/02 09:35:37;;;;;;;7.03;1.65;;;13.00;99.90;;;;;;5027026;28;20018;-60
2022/11/02 09:38:03;;;;;;;6.47;1.83;;;13.00;99.90;;;;;;5023916;28;20037;-59
2022/11/02 09:41:08;;;;;;;3.90;1.55;;;13.00;99.90;;;;;;5026840;28;20083;-59
2022/11/02 09:43:58;;;;;;;14.40;1.73;;;13.10;99.90;;;;;;4995873;28;20034;-59
2022/11/02 09:46:29;;;;;;;2.40;1.10;;;13.00;99.90;;;;;;5025652;28;20037;-60
2022/11/02 09:49:11;;;;;;;5.43;1.63;;;12.90;99.90;;;;;;5023158;28;20033;-58
2022/11/02 09:51:46;;;;;;;4.20;1.45;;;12.90;99.90;;;;;;5024055;28;20290;-58
2022/11/02 09:54:20;;;;;;;9.98;1.67;;;12.80;99.90;;;;;;5026061;28;20104;-58
2022/11/02 09:56:48;;;;;;;7.78;1.70;;;12.80;99.90;;;;;;5029517;28;20522;-58
2022/11/02 09:59:26;;;;;;;7.50;2.80;;;12.70;99.90;;;;;;5034035;28;20088;-58
2022/11/02 10:02:32;;;;;;;4.10;1.85;;;12.70;99.90;;;;;;5013455;28;20493;-58
2022/11/02 10:05:06;;;;;;;5.72;1.70;;;12.70;99.90;;;;;;5029691;28;20036;-58
2022/11/02 10:07:50;;;;;;;7.82;2.65;;;12.70;99.90;;;;;;5028384;28;20057;-59
2022/11/02 10:10:33;;;;;;;4.20;1.35;;;13.00;99.90;;;;;;5028843;28;20522;-59
2022/11/02 10:13:02;;;;;;;9.10;2.13;;;13.50;99.90;;;;;;5029488;28;20045;-58
2022/11/02 10:15:37;;;;;;;3.53;1.40;;;14.00;99.90;;;;;;5027457;28;20022;-60
2022/11/02 10:18:03;;;;;;;7.47;1.80;;;14.40;99.90;;;;;;5029532;28;20491;-58
2022/11/02 10:20:37;;;;;;;3.58;1.77;;;14.50;99.90;;;;;;5027901;28;20041;-58
2022/11/02 10:23:10;;;;;;;9.82;1.80;;;14.60;99.90;;;;;;5029755;28;20130;-58
2022/11/02 10:25:36;;;;;;;3.92;1.27;;;14.70;99.90;;;;;;5026860;28;20018;-59
2022/11/02 10:28:17;;;;;;;4.50;1.80;;;14.60;99.90;;;;;;5028954;28;20393;-58
2022/11/02 10:30:43;;;;;;;6.90;1.60;;;14.50;99.90;;;;;;5026598;28;20524;-59
2022/11/02 10:33:17;;;;;;;5.43;1.30;;;14.50;99.90;;;;;;5029257;28;20053;-59
2022/11/02 10:36:34;;;;;;;7.05;1.35;;;14.40;99.90;;;;;;5029012;28;20022;-59
2022/11/02 10:39:24;;;;;;;4.57;1.30;;;14.20;99.90;;;;;;5002461;28;20041;-60
2022/11/02 10:42:13;;;;;;;4.68;1.35;;;14.00;99.90;;;;;;5028513;28;20104;-58
2022/11/02 10:45:01;;;;;;;5.13;1.10;;;13.70;99.90;;;;;;5024580;28;20113;-58
2022/11/02 10:47:32;;;;;;;10.93;1.55;;;13.40;99.90;;;;;;5027049;28;20415;-61
2022/11/02 10:50:16;;;;;;;;;;;13.30;99.90;;;;;;5029427;28;20091;-59
2022/11/02 10:52:44;;;;;;;6.75;1.30;;;13.20;99.90;;;;;;5027747;28;19967;-59
2022/11/02 10:55:28;;;;;;;3.60;1.50;;;13.10;99.90;;;;;;5020799;28;20044;-58
2022/11/02 10:57:57;;;;;;;7.57;1.20;;;13.00;99.90;;;;;;5026935;28;20113;-59
2022/11/02 11:00:32;;;;;;;4.35;1.40;;;13.00;99.90;;;;;;5024415;28;20037;-58
2022/11/02 11:03:05;;;;;;;2.40;0.93;;;13.20;99.90;;;;;;5025264;28;20018;-59
2022/11/02 11:05:33;;;;;;;6.45;1.60;;;13.20;99.90;;;;;;5028954;28;20032;-59
2022/11/02 11:07:59;;;;;;;5.00;1.30;;;13.20;99.90;;;;;;5026416;28;20084;-59
2022/11/02 11:10:26;;;;;;;6.90;1.30;;;13.30;99.90;;;;;;5025398;28;20084;-59
2022/11/02 11:12:54;;;;;;;8.75;1.50;;;13.30;99.90;;;;;;5027705;28;20398;-58
2022/11/02 11:15:27;;;;;;;7.00;1.90;;;13.50;99.90;;;;;;5027111;28;20037;-59
2022/11/02 11:17:54;;;;;;;4.70;2.00;;;13.60;99.90;;;;;;5027744;28;20059;-59
2022/11/02 11:20:32;;;;;;;11.80;1.55;;;13.70;99.90;;;;;;5026822;28;20032;-59
2022/11/02 11:23:23;;;;;;;3.40;1.30;;;13.80;99.90;;;;;;5027194;28;20033;-61
2022/11/02 11:25:58;;;;;;;9.00;1.58;;;13.90;99.90;;;;;;5025383;28;20029;-59
2022/11/02 11:28:30;;;;;;;6.43;1.48;;;14.20;99.90;;;;;;5026657;28;20124;-59
2022/11/02 11:31:16;;;;;;;8.05;1.02;;;14.40;99.90;;;;;;5025335;28;20049;-59
2022/11/02 11:33:53;;;;;;;5.38;1.10;;;14.70;99.90;;;;;;5027430;28;20105;-59
2022/11/02 11:36:27;;;;;;;6.25;1.35;;;14.80;99.90;;;;;;5026416;28;20063;-58
2022/11/02 11:38:57;;;;;;;5.43;1.42;;;14.60;99.90;;;;;;5025733;28;20022;-58
2022/11/02 11:41:23;;;;;;;5.28;1.13;;;14.30;99.90;;;;;;5024434;28;20026;-58
2022/11/02 11:43:50;;;;;;;7.00;1.45;;;14.00;99.90;;;;;;5024426;28;20106;-58
2022/11/02 11:46:16;;;;;;;8.02;1.33;;;13.90;99.90;;;;;;5026762;28;20041;-58
2022/11/02 11:48:44;;;;;;;13.82;1.88;;;14.00;99.90;;;;;;5026642;28;20042;-59
2022/11/02 11:51:37;;;;;;;4.80;1.15;;;14.10;99.90;;;;;;5024202;28;20033;-58
2022/11/02 11:54:27;;;;;;;5.28;1.13;;;14.30;99.90;;;;;;5027669;28;20134;-58
2022/11/02 11:56:55;;;;;;;6.05;1.10;;;14.50;99.90;;;;;;5018189;28;20120;-59
2022/11/02 11:59:25;;;;;;;3.28;1.45;;;15.00;99.90;;;;;;5028633;28;20056;-58
2022/11/02 12:02:00;;;;;;;3.97;1.20;;;15.50;99.90;;;;;;5026272;28;20025;-60
2022/11/02 12:04:32;;;;;;;6.28;1.10;;;16.00;99.90;;;;;;5027022;28;20029;-59
2022/11/02 12:07:16;;;;;;;5.53;1.00;;;16.40;99.90;;;;;;5024571;28;20022;-59
2022/11/02 12:09:52;;;;;;;4.97;1.52;;;16.50;99.90;;;;;;5027003;28;20438;-59
2022/11/02 12:12:45;;;;;;;3.63;1.20;;;16.40;99.90;;;;;;5027233;28;20512;-59
2022/11/02 12:15:27;;;;;;;3.30;1.20;;;16.50;99.90;;;;;;5026782;28;20029;-58
2022/11/02 12:18:11;;;;;;;3.70;0.95;;;16.70;99.90;;;;;;5025361;28;20026;-60
2022/11/02 12:21:04;;;;;;;4.10;1.10;;;16.90;99.90;;;;;;5031929;28;20037;-61
2022/11/02 12:23:53;;;;;;;2.40;0.80;;;17.00;96.10;;;;;;5026836;28;20022;-58
2022/11/02 12:26:58;;;;;;;4.65;1.40;;;16.70;92.00;;;;;;5026084;28;20635;-58
2022/11/02 12:29:52;;;;;;;1.67;0.80;;;16.40;94.40;;;;;;5015295;28;20045;-59
2022/11/02 12:32:32;;;;;;;4.35;0.90;;;16.40;98.40;;;;;;5026748;28;20132;-59
2022/11/02 12:35:19;;;;;;;6.97;1.58;;;16.30;99.90;;;;;;5026584;28;20053;-58
2022/11/02 12:38:04;;;;;;;2.90;0.90;;;16.00;99.90;;;;;;5027089;28;20032;-59
2022/11/02 12:40:49;;;;;;;5.22;1.17;;;15.80;99.90;;;;;;5026703;28;20032;-60
2022/11/02 12:43:33;;;;;;;4.30;1.00;;;15.40;98.90;;;;;;5024011;28;20607;-60
2022/11/02 12:46:20;;;;;;;4.07;1.20;;;15.10;99.90;;;;;;5023743;28;20045;-58
2022/11/02 12:49:15;;;;;;;5.53;0.90;;;15.10;99.90;;;;;;5025895;28;20060;-59
2022/11/02 12:51:46;;;;;;;5.00;1.20;;;15.20;99.90;;;;;;5025652;28;20034;-58
2022/11/02 12:54:44;;;;;;;9.50;1.25;;;15.40;99.90;;;;;;5025335;28;20041;-59
2022/11/02 12:57:13;;;;;;;4.47;1.20;;;15.60;99.90;;;;;;5023495;28;20056;-60
2022/11/02 12:59:41;;;;;;;4.43;1.08;;;15.60;99.90;;;;;;5023262;28;20037;-58
2022/11/02 13:02:27;;;;;;;6.72;1.00;;;15.60;99.90;;;;;;5026573;28;20477;-58
2022/11/02 13:05:17;;;;;;;3.22;1.05;;;15.80;99.90;;;;;;5023787;28;20029;-59
2022/11/02 13:08:04;;;;;;;6.50;1.92;;;15.80;99.90;;;;;;5026874;28;20060;-58
2022/11/02 13:11:03;;;;;;;5.70;1.58;;;15.90;99.90;;;;;;5025617;28;20117;-58
2022/11/02 13:14:03;;;;;;;3.10;1.13;;;16.10;99.90;;;;;;5021709;28;20124;-60
2022/11/02 13:16:37;;;;;;;3.97;0.90;;;16.10;96.80;;;;;;5003542;28;20042;-58
2022/11/02 13:19:10;;;;;;;4.95;1.08;;;16.10;97.00;;;;;;5026095;28;20128;-58
2022/11/02 13:21:42;;;;;;;3.30;1.10;;;16.10;96.40;;;;;;5024565;28;20429;-60
2022/11/02 13:24:16;;;;;;;5.25;1.27;;;16.20;98.10;;;;;;5023963;28;20033;-60
2022/11/02 13:26:43;;;;;;;4.32;1.00;;;16.30;92.90;;;;;;5026329;28;20563;-58
2022/11/02 13:29:45;;;;;;;5.15;1.38;;;16.40;93.80;;;;;;5027631;28;20046;-58